createdAt,value
2024-01-15T04:54:09.937Z,96173.13
2024-01-15T04:56:36.889Z,96159.25
2024-01-15T04:59:03.894Z,96162.38
2024-01-15T05:01:30.983Z,96153.13
2024-01-15T05:04:00.061Z,96164.28
2024-01-15T05:06:27.301Z,96148.66
2024-01-15T05:08:54.452Z,96161.13
2024-01-15T05:11:21.403Z,96166.78
2024-01-15T05:13:48.298Z,96172.22
2024-01-15T05:16:15.290Z,96167.34
2024-01-15T05:18:42.313Z,96171.78
2024-01-15T05:21:09.302Z,96170.06
2024-01-15T05:23:36.321Z,96166.19
2024-01-15T05:26:03.216Z,96163.69
2024-01-15T05:28:30.206Z,96164.31
2024-01-15T05:30:57.297Z,96159.25
2024-01-15T05:33:24.383Z,96148.22
2024-01-15T05:35:51.421Z,96148.50
2024-01-15T05:38:18.377Z,96146.66
2024-01-15T05:40:45.355Z,96147.22
2024-01-15T05:43:12.360Z,96151.97
2024-01-15T05:45:39.330Z,96157.72
2024-01-15T05:48:06.621Z,96154.06
2024-01-15T05:50:33.851Z,96136.16
2024-01-15T05:53:00.889Z,96145.09
2024-01-15T05:55:27.821Z,96139.81
2024-01-15T05:57:54.801Z,96136.16
2024-01-15T06:00:21.953Z,96142.34
2024-01-15T06:02:49.019Z,96134.97
2024-01-15T06:05:15.949Z,96143.53
2024-01-15T06:07:43.010Z,96137.97
2024-01-15T06:10:09.892Z,96139.44
2024-01-15T06:12:36.982Z,96136.94
2024-01-15T06:15:03.981Z,96138.28
2024-01-15T06:17:30.939Z,96137.19
2024-01-15T06:19:57.913Z,96135.94
2024-01-15T06:22:24.918Z,96131.44
2024-01-15T06:24:51.880Z,96127.84
2024-01-15T06:27:19.244Z,96141.13
2024-01-15T06:29:48.985Z,96138.09
2024-01-15T06:32:17.311Z,96152.34
2024-01-15T06:34:44.431Z,96147.84
2024-01-15T06:37:11.587Z,96137.66
2024-01-15T06:39:38.609Z,96133.41
2024-01-15T06:42:05.597Z,96128.59
2024-01-15T06:44:32.385Z,96123.19
2024-01-15T06:46:59.111Z,96130.66
2024-01-15T06:49:26.032Z,96128.81
2024-01-15T06:51:53.007Z,96135.31
2024-01-15T06:54:19.766Z,96138.13
2024-01-15T06:56:46.518Z,96130.53
2024-01-15T06:59:14.679Z,96142.78
2024-01-15T07:01:42.825Z,96134.00
2024-01-15T07:04:09.601Z,96137.94
